createdAt,value
2023-01-03T00:00:26.946Z,2.95
2023-01-03T00:02:54.432Z,2.33
2023-01-03T00:05:21.747Z,2.00
2023-01-03T00:07:49.139Z,2.50
2023-01-03T00:10:16.441Z,2.58
2023-01-03T00:12:43.709Z,2.53
2023-01-03T00:15:15.617Z,2.65
2023-01-03T00:17:43.528Z,2.13
2023-01-03T00:20:11.556Z,2.13
2023-01-03T00:22:39.135Z,2.40
2023-01-03T00:25:06.665Z,2.40
2023-01-03T00:27:33.923Z,2.50
2023-01-03T00:30:01.446Z,2.00
2023-01-03T00:32:28.651Z,2.25
2023-01-03T00:34:59.005Z,2.30
2023-01-03T00:37:30.280Z,2.30
2023-01-03T00:39:57.471Z,2.58
2023-01-03T00:42:24.724Z,2.63
2023-01-03T00:44:52.175Z,2.22
2023-01-03T00:47:20.339Z,2.85
2023-01-03T00:49:47.683Z,2.40
2023-01-03T00:52:14.902Z,2.90
2023-01-03T00:54:42.180Z,3.33
2023-01-03T00:57:09.420Z,2.60
2023-01-03T00:59:36.769Z,2.53
2023-01-03T01:02:04.902Z,2.60
2023-01-03T01:04:32.802Z,2.47
2023-01-03T01:07:02.618Z,2.15
2023-01-03T01:09:32.434Z,2.05
2023-01-03T01:11:59.811Z,2.95
2023-01-03T01:14:29.650Z,2.40
2023-01-03T01:17:02.743Z,2.15
2023-01-03T01:19:32.918Z,2.50
2023-01-03T01:22:00.551Z,2.42
2023-01-03T01:24:27.871Z,2.78
2023-01-03T01:26:55.408Z,2.90
2023-01-03T01:29:23.118Z,2.70
2023-01-03T01:31:50.450Z,2.58
2023-01-03T01:34:17.985Z,2.38
2023-01-03T01:36:46.405Z,2.57
2023-01-03T01:39:16.541Z,2.20
2023-01-03T01:42:03.394Z,2.17
2023-01-03T01:44:46.284Z,2.08
2023-01-03T01:47:21.079Z,1.98
2023-01-03T01:49:52.724Z,1.73
2023-01-03T01:52:21.616Z,1.70
2023-01-03T01:54:51.440Z,2.63
2023-01-03T01:57:22.432Z,2.38
2023-01-03T01:59:49.907Z,1.83
2023-01-03T02:02:20.923Z,2.30
2023-01-03T02:04:52.714Z,1.92
2023-01-03T02:07:22.425Z,1.90
2023-01-03T02:09:52.913Z,1.63
2023-01-03T02:12:44.339Z,1.67
2023-01-03T02:15:12.174Z,2.08
2023-01-03T02:17:51.513Z,1.80
2023-01-03T02:20:27.121Z,1.67
2023-01-03T02:23:26.136Z,1.88
2023-01-03T02:26:20.620Z,2.00
2023-01-03T02:29:19.497Z,1.90
2023-01-03T02:32:00.560Z,2.28
2023-01-03T02:34:49.012Z,1.92
2023-01-03T02:37:37.466Z,3.22
2023-01-03T02:40:08.408Z,2.17
2023-01-03T02:43:13.394Z,1.87
2023-01-03T02:45:52.820Z,2.40
2023-01-03T02:48:22.893Z,2.60
2023-01-03T02:50:53.734Z,2.22
2023-01-03T02:53:26.901Z,2.40
2023-01-03T02:55:58.331Z,2.05
2023-01-03T02:58:29.862Z,2.22
2023-01-03T03:01:00.064Z,1.85
2023-01-03T03:03:32.308Z,2.20
2023-01-03T03:06:15.057Z,3.23
2023-01-03T03:08:46.005Z,2.05
2023-01-03T03:11:32.520Z,1.90
2023-01-03T03:14:29.407Z,2.27
2023-01-03T03:17:03.115Z,1.83
2023-01-03T03:19:51.879Z,2.22
2023-01-03T03:23:05.386Z,1.65
2023-01-03T03:25:51.404Z,2.08
2023-01-03T03:28:36.167Z,2.13
2023-01-03T03:31:13.504Z,2.37
2023-01-03T03:33:56.057Z,2.27
2023-01-03T03:36:47.958Z,2.37
2023-01-03T03:39:34.627Z,2.20
2023-01-03T03:42:47.035Z,1.83
2023-01-03T03:45:56.364Z,2.33
2023-01-03T03:48:59.881Z,2.50
2023-01-03T03:51:31.464Z,2.83
2023-01-03T03:54:02.823Z,2.60
2023-01-03T03:56:32.591Z,2.25
2023-01-03T03:59:06.052Z,2.70
2023-01-03T04:01:36.737Z,2.53
2023-01-03T04:04:09.825Z,2.30
2023-01-03T04:06:50.873Z,2.55
2023-01-03T04:09:18.753Z,2.40
2023-01-03T04:11:46.020Z,2.43
2023-01-03T04:14:13.319Z,3.15
2023-01-03T04:16:43.698Z,2.70
2023-01-03T04:19:10.968Z,2.40
2023-01-03T04:21:38.353Z,2.63
2023-01-03T04:24:05.898Z,3.10
2023-01-03T04:26:33.307Z,2.80
2023-01-03T04:29:00.560Z,3.10
2023-01-03T04:31:27.942Z,2.53
2023-01-03T04:33:55.314Z,2.78
2023-01-03T04:36:22.739Z,3.22
2023-01-03T04:38:49.974Z,2.43
2023-01-03T04:41:17.286Z,2.40
2023-01-03T04:44:03.022Z,3.10
2023-01-03T04:46:37.470Z,2.00
2023-01-03T04:49:06.396Z,2.20
2023-01-03T04:51:34.450Z,3.50
2023-01-03T04:54:03.333Z,2.53
2023-01-03T04:56:35.937Z,2.42
2023-01-03T04:59:03.232Z,2.10
2023-01-03T05:01:30.516Z,2.87
2023-01-03T05:03:59.913Z,2.33
2023-01-03T05:06:27.639Z,2.70
2023-01-03T05:08:55.219Z,2.43
2023-01-03T05:11:22.779Z,2.78
2023-01-03T05:13:50.052Z,2.43
2023-01-03T05:16:17.432Z,2.67
2023-01-03T05:18:45.022Z,1.80
2023-01-03T05:21:36.461Z,1.83
2023-01-03T05:24:23.749Z,1.98
2023-01-03T05:26:52.293Z,2.50
2023-01-03T05:29:21.572Z,2.00
2023-01-03T05:31:49.456Z,2.70
2023-01-03T05:34:16.966Z,2.50
2023-01-03T05:36:44.248Z,2.67
2023-01-03T05:39:11.607Z,1.90
2023-01-03T05:41:57.619Z,2.22
2023-01-03T05:44:25.233Z,2.45
2023-01-03T05:46:52.614Z,2.22
2023-01-03T05:49:19.823Z,2.03
2023-01-03T05:51:47.066Z,1.92
2023-01-03T05:54:16.017Z,2.35
2023-01-03T05:56:43.392Z,1.90
2023-01-03T05:59:11.084Z,2.35
2023-01-03T06:01:39.014Z,2.50
2023-01-03T06:04:07.080Z,2.70
2023-01-03T06:06:34.664Z,2.47
2023-01-03T06:09:01.884Z,2.90
2023-01-03T06:11:29.112Z,3.30
2023-01-03T06:13:56.679Z,2.57
2023-01-03T06:16:43.175Z,2.45
2023-01-03T06:19:10.592Z,2.07
2023-01-03T06:21:38.680Z,2.50
2023-01-03T06:24:06.051Z,2.20
2023-01-03T06:26:33.498Z,2.08
2023-01-03T06:29:00.853Z,2.47
2023-01-03T06:31:28.468Z,2.45
2023-01-03T06:33:55.847Z,1.98
2023-01-03T06:36:25.981Z,1.70
2023-01-03T06:38:54.194Z,2.30
2023-01-03T06:41:21.884Z,1.98
2023-01-03T06:43:49.157Z,2.27
2023-01-03T06:46:35.020Z,2.00
2023-01-03T06:49:21.080Z,2.65
2023-01-03T06:52:08.860Z,2.88
2023-01-03T06:54:37.998Z,3.10
2023-01-03T06:57:05.708Z,2.65
2023-01-03T06:59:32.989Z,2.93
2023-01-03T07:02:00.943Z,2.80
2023-01-03T07:04:28.386Z,2.13
2023-01-03T07:06:55.842Z,1.83
2023-01-03T07:09:24.259Z,2.17
2023-01-03T07:11:51.515Z,1.95
2023-01-03T07:14:19.039Z,2.97
2023-01-03T07:16:48.297Z,1.67
2023-01-03T07:19:19.713Z,2.05
2023-01-03T07:21:47.306Z,1.85
2023-01-03T07:24:15.859Z,2.00
2023-01-03T07:26:43.072Z,2.20
2023-01-03T07:29:10.841Z,2.00
2023-01-03T07:31:41.490Z,2.17
2023-01-03T07:34:09.482Z,2.13
2023-01-03T07:36:37.193Z,2.85
2023-01-03T07:39:04.533Z,2.85
2023-01-03T07:41:50.373Z,2.83
2023-01-03T07:44:19.156Z,3.33
2023-01-03T07:46:46.405Z,3.08
2023-01-03T07:49:15.065Z,2.20
2023-01-03T07:51:42.285Z,2.53
2023-01-03T07:54:09.558Z,2.95
2023-01-03T07:56:36.931Z,2.67
2023-01-03T07:59:04.143Z,2.45
2023-01-03T08:01:33.051Z,2.28
2023-01-03T08:04:00.375Z,2.17
2023-01-03T08:06:27.680Z,2.50
2023-01-03T08:09:13.412Z,2.25
2023-01-03T08:11:59.205Z,2.83
2023-01-03T08:14:27.418Z,2.20
2023-01-03T08:16:56.016Z,2.85
2023-01-03T08:19:24.534Z,2.58
2023-01-03T08:21:51.803Z,2.72
2023-01-03T08:24:19.189Z,2.03
2023-01-03T08:26:46.473Z,3.00
2023-01-03T08:29:13.836Z,2.70
2023-01-03T08:31:49.690Z,2.80
2023-01-03T08:34:25.302Z,2.90
2023-01-03T08:37:01.539Z,2.45
2023-01-03T08:39:34.624Z,2.83
2023-01-03T08:42:06.735Z,2.75
2023-01-03T08:44:34.609Z,2.40
2023-01-03T08:47:04.432Z,3.08
2023-01-03T08:49:32.366Z,2.70
2023-01-03T08:51:59.594Z,3.55
2023-01-03T08:54:26.825Z,2.53
2023-01-03T08:56:54.078Z,2.50
2023-01-03T08:59:21.401Z,2.35
2023-01-03T09:01:48.739Z,2.30
2023-01-03T09:04:16.232Z,2.50
2023-01-03T09:06:43.508Z,2.50
2023-01-03T09:09:10.767Z,2.40
2023-01-03T09:11:38.001Z,2.42
2023-01-03T09:14:05.428Z,2.38
2023-01-03T09:16:32.712Z,3.30
2023-01-03T09:19:02.476Z,2.65
2023-01-03T09:21:29.800Z,2.20
2023-01-03T09:23:58.603Z,2.78
2023-01-03T09:26:26.056Z,2.92
2023-01-03T09:28:53.397Z,2.80
2023-01-03T09:31:20.672Z,2.67
2023-01-03T09:33:47.956Z,2.70
2023-01-03T09:36:15.146Z,2.00
2023-01-03T09:38:42.451Z,2.08
2023-01-03T09:41:19.055Z,1.90
2023-01-03T09:43:49.135Z,1.98
2023-01-03T09:46:22.452Z,2.65
2023-01-03T09:48:50.712Z,1.80
2023-01-03T09:51:43.380Z,2.20
2023-01-03T09:54:49.638Z,2.95
2023-01-03T09:57:39.503Z,2.28
2023-01-03T10:00:36.433Z,2.13
2023-01-03T10:03:29.343Z,2.00
2023-01-03T10:06:10.616Z,1.63
2023-01-03T10:08:54.836Z,1.80
2023-01-03T10:11:34.566Z,1.98
2023-01-03T10:14:29.759Z,1.83
2023-01-03T10:17:01.588Z,1.90
2023-01-03T10:19:47.612Z,2.40
2023-01-03T10:22:19.104Z,2.25
2023-01-03T10:24:47.567Z,2.05
2023-01-03T10:27:25.075Z,1.75
2023-01-03T10:29:55.428Z,1.92
2023-01-03T10:32:38.278Z,2.28
2023-01-03T10:35:30.888Z,1.80
2023-01-03T10:37:59.593Z,1.83
2023-01-03T10:40:47.462Z,2.22
2023-01-03T10:43:14.699Z,1.67
2023-01-03T10:45:54.384Z,2.13
2023-01-03T10:48:22.444Z,1.90
2023-01-03T10:50:51.083Z,1.30
2023-01-03T10:53:21.901Z,1.27
2023-01-03T10:55:52.622Z,1.20
2023-01-03T10:58:30.642Z,0.68
2023-01-03T11:01:31.215Z,1.08
2023-01-03T11:04:18.108Z,1.75
2023-01-03T11:07:15.408Z,1.10
2023-01-03T11:09:57.695Z,1.13
2023-01-03T11:12:35.132Z,1.63
2023-01-03T11:15:15.244Z,1.42
2023-01-03T11:18:16.336Z,1.00
2023-01-03T11:21:03.664Z,1.20
2023-01-03T11:23:52.543Z,1.23
2023-01-03T11:26:49.457Z,0.90
2023-01-03T11:29:40.975Z,0.95
2023-01-03T11:32:17.226Z,1.35
2023-01-03T11:35:23.359Z,2.13
2023-01-03T11:38:27.116Z,1.10
2023-01-03T11:41:13.024Z,1.83
2023-01-03T11:44:22.171Z,0.90
2023-01-03T11:47:05.421Z,0.90
2023-01-03T11:49:46.455Z,0.90
2023-01-03T11:52:52.028Z,0.90
2023-01-03T11:55:43.651Z,0.82
2023-01-03T11:58:36.375Z,1.20
2023-01-03T12:01:37.105Z,1.20
2023-01-03T12:04:36.632Z,0.70
2023-01-03T12:07:45.924Z,0.65
2023-01-03T12:10:19.151Z,0.73
2023-01-03T12:13:25.247Z,0.90
2023-01-03T12:15:58.912Z,1.00
2023-01-03T12:18:53.490Z,0.82
2023-01-03T12:21:38.786Z,0.90
2023-01-03T12:24:09.816Z,0.85
2023-01-03T12:26:42.178Z,0.80
2023-01-03T12:29:24.756Z,1.33
2023-01-03T12:32:00.554Z,0.88
2023-01-03T12:34:54.985Z,0.95
2023-01-03T12:37:23.755Z,0.65
2023-01-03T12:39:56.853Z,1.05
2023-01-03T12:42:30.078Z,1.27
2023-01-03T12:45:20.717Z,1.05
2023-01-03T12:48:07.759Z,1.10
2023-01-03T12:50:47.393Z,0.70
2023-01-03T12:53:31.877Z,0.70
2023-01-03T12:56:21.035Z,0.65
2023-01-03T12:59:23.565Z,0.73
2023-01-03T13:01:59.257Z,0.80
2023-01-03T13:04:34.834Z,0.57
2023-01-03T13:07:02.075Z,0.65
2023-01-03T13:09:35.957Z,0.60
2023-01-03T13:12:16.393Z,0.50
2023-01-03T13:14:55.487Z,0.93
2023-01-03T13:17:27.486Z,1.08
2023-01-03T13:20:32.010Z,0.70
2023-01-03T13:23:22.605Z,0.60
2023-01-03T13:26:15.783Z,0.70
2023-01-03T13:28:43.170Z,0.70
2023-01-03T13:31:19.484Z,0.63
2023-01-03T13:34:10.848Z,0.70
2023-01-03T13:37:06.399Z,0.60
2023-01-03T13:39:38.344Z,1.17
2023-01-03T13:42:18.759Z,0.73
2023-01-03T13:44:46.298Z,0.70
2023-01-03T13:47:36.124Z,0.80
2023-01-03T13:50:03.731Z,0.80
2023-01-03T13:52:55.811Z,0.45
2023-01-03T13:56:18.143Z,0.60
2023-01-03T13:58:50.720Z,0.85
2023-01-03T14:01:59.958Z,0.93
2023-01-03T14:05:10.304Z,0.60
2023-01-03T14:08:02.482Z,0.75
2023-01-03T14:10:51.432Z,0.73
2023-01-03T14:13:33.363Z,0.85
2023-01-03T14:16:22.208Z,0.90
2023-01-03T14:19:19.739Z,0.60
2023-01-03T14:22:27.396Z,0.80
2023-01-03T14:24:57.286Z,1.00
2023-01-03T14:27:31.289Z,0.70
2023-01-03T14:29:58.637Z,0.70
2023-01-03T14:32:34.109Z,0.80
2023-01-03T14:35:03.174Z,0.60
2023-01-03T14:37:33.372Z,0.70
2023-01-03T14:40:07.397Z,0.70
2023-01-03T14:42:34.680Z,0.65
2023-01-03T14:45:05.763Z,1.15
2023-01-03T14:47:34.285Z,1.00
2023-01-03T14:50:02.495Z,1.00
2023-01-03T14:52:38.157Z,0.70
2023-01-03T14:55:09.296Z,0.70
2023-01-03T14:57:40.256Z,1.77
2023-01-03T15:00:11.744Z,0.90
2023-01-03T15:02:41.267Z,1.02
2023-01-03T15:05:28.875Z,0.70
2023-01-03T15:08:08.275Z,0.90
2023-01-03T15:10:45.402Z,1.38
2023-01-03T15:13:39.375Z,0.60
2023-01-03T15:16:19.030Z,0.90
2023-01-03T15:18:46.996Z,1.00
2023-01-03T15:21:18.824Z,0.80
2023-01-03T15:23:48.654Z,1.20
2023-01-03T15:26:46.845Z,0.77
2023-01-03T15:29:25.183Z,0.73
2023-01-03T15:31:57.122Z,1.17
2023-01-03T15:34:30.595Z,1.35
2023-01-03T15:37:02.450Z,1.00
2023-01-03T15:39:41.925Z,0.80
2023-01-03T15:42:44.552Z,0.80
2023-01-03T15:45:19.514Z,0.80
2023-01-03T15:47:49.258Z,0.75
2023-01-03T15:50:19.026Z,1.10
2023-01-03T15:52:47.463Z,0.98
2023-01-03T15:55:15.922Z,1.30
2023-01-03T15:57:49.368Z,1.23
2023-01-03T16:00:20.036Z,1.92
2023-01-03T16:02:48.704Z,1.27
2023-01-03T16:05:22.034Z,1.02
2023-01-03T16:07:50.897Z,1.02
2023-01-03T16:10:18.203Z,1.80
2023-01-03T16:12:46.068Z,1.20
2023-01-03T16:15:20.305Z,1.10
2023-01-03T16:17:49.410Z,0.95
2023-01-03T16:20:19.025Z,0.95
2023-01-03T16:23:00.795Z,1.23
2023-01-03T16:25:29.408Z,1.13
2023-01-03T16:27:57.232Z,1.33
2023-01-03T16:30:27.690Z,1.65
2023-01-03T16:32:54.982Z,1.13
2023-01-03T16:35:22.552Z,1.40
2023-01-03T16:37:49.808Z,1.17
2023-01-03T16:40:19.869Z,1.67
2023-01-03T16:42:47.643Z,1.42
2023-01-03T16:45:16.233Z,1.13
2023-01-03T16:47:43.996Z,1.38
2023-01-03T16:50:18.709Z,1.08
2023-01-03T16:52:49.965Z,1.55
2023-01-03T16:55:34.011Z,1.48
2023-01-03T16:58:01.465Z,1.40
2023-01-03T17:00:31.253Z,1.92
2023-01-03T17:03:00.138Z,1.50
2023-01-03T17:05:31.573Z,1.40
2023-01-03T17:08:24.864Z,1.67
2023-01-03T17:10:54.733Z,1.77
2023-01-03T17:13:27.253Z,1.98
2023-01-03T17:15:55.587Z,1.55
2023-01-03T17:18:29.375Z,1.42
2023-01-03T17:21:15.157Z,1.35
2023-01-03T17:23:44.278Z,2.20
2023-01-03T17:26:20.591Z,2.05
2023-01-03T17:28:49.411Z,2.83
2023-01-03T17:31:19.229Z,1.65
2023-01-03T17:33:46.616Z,2.20
2023-01-03T17:36:16.357Z,1.80
2023-01-03T17:38:45.103Z,1.73
2023-01-03T17:41:24.013Z,1.98
2023-01-03T17:43:51.378Z,1.60
2023-01-03T17:46:41.398Z,1.17
2023-01-03T17:49:26.043Z,1.70
2023-01-03T17:51:58.212Z,1.80
2023-01-03T17:54:30.845Z,1.88
2023-01-03T17:56:59.393Z,2.42
2023-01-03T17:59:27.474Z,2.22
2023-01-03T18:01:55.883Z,2.15
2023-01-03T18:04:38.252Z,2.70
2023-01-03T18:07:26.940Z,2.45
2023-01-03T18:09:56.600Z,2.13
2023-01-03T18:12:24.296Z,2.38
2023-01-03T18:14:51.636Z,2.17
2023-01-03T18:17:24.951Z,2.30
2023-01-03T18:19:52.289Z,2.85
2023-01-03T18:22:20.179Z,2.28
2023-01-03T18:24:47.694Z,2.38
2023-01-03T18:27:16.297Z,1.92
2023-01-03T18:29:43.622Z,2.70
2023-01-03T18:32:16.711Z,2.33
2023-01-03T18:34:43.995Z,2.80
2023-01-03T18:37:11.199Z,1.63
2023-01-03T18:39:38.489Z,2.13
2023-01-03T18:42:24.369Z,2.25
2023-01-03T18:44:51.561Z,1.90
2023-01-03T18:47:18.999Z,1.80
2023-01-03T18:49:46.403Z,1.70
2023-01-03T18:52:23.102Z,1.40
2023-01-03T18:54:51.561Z,1.48
2023-01-03T18:57:19.451Z,2.03
2023-01-03T18:59:47.498Z,1.95
2023-01-03T19:02:19.973Z,2.22
2023-01-03T19:04:51.656Z,1.73
2023-01-03T19:07:29.004Z,1.48
2023-01-03T19:09:56.880Z,1.40
2023-01-03T19:12:24.700Z,1.55
2023-01-03T19:14:52.086Z,1.75
2023-01-03T19:17:20.345Z,2.13
2023-01-03T19:19:47.806Z,1.20
2023-01-03T19:22:28.503Z,1.20
2023-01-03T19:24:58.575Z,2.00
2023-01-03T19:27:37.704Z,1.80
2023-01-03T19:30:07.149Z,2.47
2023-01-03T19:32:35.267Z,1.65
2023-01-03T19:35:02.552Z,2.03
2023-01-03T19:37:29.921Z,2.20
2023-01-03T19:39:57.153Z,1.95
2023-01-03T19:42:46.116Z,1.83
2023-01-03T19:45:37.215Z,1.60
2023-01-03T19:48:13.366Z,1.80
2023-01-03T19:50:40.840Z,2.28
2023-01-03T19:53:08.165Z,1.55
2023-01-03T19:55:40.491Z,1.60
2023-01-03T19:58:24.080Z,1.27
2023-01-03T20:00:52.049Z,1.63
2023-01-03T20:03:39.371Z,1.70
2023-01-03T20:06:11.907Z,1.73
2023-01-03T20:08:39.322Z,1.77
2023-01-03T20:11:09.983Z,1.80
2023-01-03T20:13:37.366Z,1.45
2023-01-03T20:16:05.503Z,1.50
2023-01-03T20:18:36.356Z,1.73
2023-01-03T20:21:10.084Z,1.90
2023-01-03T20:23:40.776Z,1.42
2023-01-03T20:26:24.532Z,1.40
2023-01-03T20:28:55.394Z,1.85
2023-01-03T20:31:23.570Z,2.25
2023-01-03T20:33:52.147Z,1.60
2023-01-03T20:36:40.087Z,2.15
2023-01-03T20:39:24.170Z,1.95
2023-01-03T20:41:51.711Z,1.52
2023-01-03T20:44:19.489Z,1.65
2023-01-03T20:46:47.189Z,1.50
2023-01-03T20:49:24.379Z,1.73
2023-01-03T20:51:52.858Z,1.73
2023-01-03T20:54:20.694Z,1.88
2023-01-03T20:56:48.149Z,1.70
2023-01-03T20:59:17.823Z,1.50
2023-01-03T21:01:47.712Z,2.25
2023-01-03T21:04:15.255Z,2.42
2023-01-03T21:06:45.338Z,1.48
2023-01-03T21:09:14.100Z,1.52
2023-01-03T21:11:41.471Z,1.88
2023-01-03T21:14:09.763Z,1.63
2023-01-03T21:16:46.393Z,1.70
2023-01-03T21:19:16.292Z,1.95
2023-01-03T21:21:46.109Z,2.80
2023-01-03T21:24:15.604Z,1.40
2023-01-03T21:26:43.958Z,1.58
2023-01-03T21:29:12.057Z,1.77
2023-01-03T21:31:42.303Z,1.50
2023-01-03T21:34:21.030Z,1.40
2023-01-03T21:36:50.080Z,2.30
2023-01-03T21:39:18.026Z,1.40
2023-01-03T21:42:05.359Z,1.85
2023-01-03T21:44:32.790Z,2.20
2023-01-03T21:47:00.171Z,1.70
2023-01-03T21:49:27.852Z,1.88
2023-01-03T21:51:55.347Z,2.10
2023-01-03T21:54:23.057Z,1.77
2023-01-03T21:56:51.210Z,1.70
2023-01-03T21:59:18.500Z,1.77
2023-01-03T22:02:07.338Z,2.10
2023-01-03T22:04:34.825Z,1.90
2023-01-03T22:07:02.998Z,1.95
2023-01-03T22:09:50.069Z,1.70
2023-01-03T22:12:19.245Z,1.80
2023-01-03T22:14:46.857Z,2.33
2023-01-03T22:17:15.247Z,1.20
2023-01-03T22:19:42.602Z,1.80
2023-01-03T22:22:10.176Z,1.85
2023-01-03T22:24:37.493Z,1.50
2023-01-03T22:27:04.838Z,1.88
2023-01-03T22:29:32.727Z,1.67
2023-01-03T22:32:00.231Z,1.65
2023-01-03T22:34:27.978Z,1.70
2023-01-03T22:36:55.295Z,1.40
2023-01-03T22:39:23.086Z,2.33
2023-01-03T22:41:50.378Z,1.80
2023-01-03T22:44:17.786Z,1.33
2023-01-03T22:46:45.131Z,1.65
2023-01-03T22:49:12.548Z,1.65
2023-01-03T22:51:39.939Z,1.67
2023-01-03T22:54:07.223Z,1.60
2023-01-03T22:56:34.582Z,1.52
2023-01-03T22:59:03.940Z,1.65
2023-01-03T23:01:31.606Z,1.80
2023-01-03T23:04:01.104Z,1.55
2023-01-03T23:06:33.535Z,1.75
2023-01-03T23:09:01.773Z,1.73
2023-01-03T23:11:50.841Z,1.77
2023-01-03T23:14:22.689Z,1.50
2023-01-03T23:16:51.337Z,1.90
2023-01-03T23:19:21.572Z,2.22
2023-01-03T23:21:50.098Z,1.60
2023-01-03T23:24:25.069Z,2.05
2023-01-03T23:26:54.069Z,1.65
2023-01-03T23:29:22.184Z,1.60
2023-01-03T23:31:49.429Z,2.28
2023-01-03T23:34:16.696Z,0.95
2023-01-03T23:36:43.952Z,1.13
2023-01-03T23:39:13.721Z,1.23
2023-01-03T23:41:41.089Z,1.48
2023-01-03T23:44:08.456Z,1.33
2023-01-03T23:46:35.971Z,1.00
2023-01-03T23:49:03.759Z,1.48
2023-01-03T23:51:31.059Z,1.95
2023-01-03T23:53:59.162Z,1.60
2023-01-03T23:56:26.414Z,2.13
2023-01-03T23:58:53.777Z,1.10
